createdAt,value
2017-09-14T00:00:13.941Z,61.10
2017-09-14T00:02:42.225Z,60.60
2017-09-14T00:05:10.498Z,60.60
2017-09-14T00:07:38.781Z,60.70
2017-09-14T00:10:07.137Z,61.60
2017-09-14T00:12:35.418Z,61.40
2017-09-14T00:15:03.689Z,61.20
2017-09-14T00:17:32.017Z,61.20
2017-09-14T00:20:00.215Z,61.40
2017-09-14T00:22:28.503Z,61.30
2017-09-14T00:24:57.645Z,61.50
2017-09-14T00:27:25.927Z,61.50
2017-09-14T00:29:54.178Z,61.70
2017-09-14T00:32:23.331Z,61.70
2017-09-14T00:34:53.378Z,61.40
2017-09-14T00:37:22.428Z,61.40
2017-09-14T00:39:50.707Z,61.50
2017-09-14T00:42:18.970Z,61.70
2017-09-14T00:44:47.306Z,61.40
2017-09-14T00:47:15.641Z,61.40
2017-09-14T00:49:43.884Z,61.70
2017-09-14T00:52:14.032Z,61.40
2017-09-14T00:54:43.188Z,61.40
2017-09-14T00:57:11.466Z,61.40
2017-09-14T00:59:39.746Z,61.50
2017-09-14T01:02:08.053Z,61.70
2017-09-14T01:04:37.091Z,61.60
2017-09-14T01:07:05.360Z,61.70
2017-09-14T01:09:34.819Z,61.70
2017-09-14T01:12:03.892Z,62.30
2017-09-14T01:14:32.167Z,61.60
2017-09-14T01:17:00.751Z,61.60
2017-09-14T01:19:30.001Z,61.70
2017-09-14T01:21:59.034Z,61.00
2017-09-14T01:24:27.364Z,61.40
2017-09-14T01:26:56.403Z,61.00
2017-09-14T01:29:24.730Z,61.00
2017-09-14T01:31:53.191Z,61.70
2017-09-14T01:34:22.259Z,61.50
2017-09-14T01:36:50.508Z,61.30
2017-09-14T01:39:19.786Z,61.30
2017-09-14T01:41:48.068Z,61.10
2017-09-14T01:44:17.111Z,61.40
2017-09-14T01:46:45.424Z,61.10
2017-09-14T01:49:13.736Z,61.20
2017-09-14T01:51:42.008Z,61.20
2017-09-14T01:54:10.282Z,61.10
2017-09-14T01:56:40.255Z,61.40
2017-09-14T01:59:08.654Z,61.40
2017-09-14T02:01:36.916Z,61.30
2017-09-14T02:04:05.219Z,61.40
2017-09-14T02:06:34.251Z,61.70
2017-09-14T02:09:02.504Z,61.70
2017-09-14T02:11:30.831Z,61.80
2017-09-14T02:14:00.090Z,61.80
2017-09-14T02:16:28.397Z,61.50
2017-09-14T02:18:56.653Z,61.10
2017-09-14T02:21:24.901Z,61.80
2017-09-14T02:23:54.983Z,62.60
2017-09-14T02:26:23.260Z,62.60
2017-09-14T02:28:51.572Z,62.20
2017-09-14T02:31:20.613Z,62.20
2017-09-14T02:33:48.927Z,62.30
2017-09-14T02:36:18.094Z,62.00
2017-09-14T02:38:46.446Z,62.40
2017-09-14T02:41:14.774Z,62.30
2017-09-14T02:43:43.644Z,62.40
2017-09-14T02:46:11.906Z,61.80
2017-09-14T02:48:40.267Z,61.70
2017-09-14T02:51:08.545Z,62.00
2017-09-14T02:53:36.829Z,61.60
2017-09-14T02:56:05.128Z,61.80
2017-09-14T02:58:33.403Z,61.60
2017-09-14T03:01:02.540Z,61.80
2017-09-14T03:03:30.832Z,61.70
2017-09-14T03:05:59.874Z,61.80
2017-09-14T03:08:30.283Z,62.10
2017-09-14T03:10:59.399Z,61.70
2017-09-14T03:13:27.663Z,61.70
2017-09-14T03:15:55.930Z,61.60
2017-09-14T03:18:24.179Z,61.80
2017-09-14T03:20:52.461Z,61.80
2017-09-14T03:23:20.734Z,61.80
2017-09-14T03:25:49.061Z,62.00
2017-09-14T03:28:17.362Z,62.00
2017-09-14T03:30:45.602Z,62.00
2017-09-14T03:33:13.918Z,61.80
2017-09-14T03:35:42.988Z,61.70
2017-09-14T03:38:11.239Z,62.00
2017-09-14T03:40:40.374Z,61.60
2017-09-14T03:43:08.637Z,61.20
2017-09-14T03:45:36.939Z,61.40
2017-09-14T03:48:05.971Z,61.70
2017-09-14T03:50:34.218Z,61.60
2017-09-14T03:53:03.266Z,61.60
2017-09-14T03:55:31.540Z,61.60
2017-09-14T03:57:59.857Z,61.10
2017-09-14T04:00:28.252Z,60.80
2017-09-14T04:02:56.541Z,60.80
2017-09-14T04:05:24.828Z,61.10
2017-09-14T04:07:53.079Z,61.20
2017-09-14T04:10:21.351Z,61.00
2017-09-14T04:12:51.301Z,60.90
2017-09-14T04:15:20.371Z,60.90
2017-09-14T04:17:49.112Z,60.80
2017-09-14T04:20:17.591Z,60.70
2017-09-14T04:22:46.861Z,61.10
2017-09-14T04:25:15.119Z,62.40
2017-09-14T04:27:43.535Z,61.80
2017-09-14T04:30:11.799Z,61.60
2017-09-14T04:32:40.061Z,61.70
2017-09-14T04:35:08.359Z,61.30
2017-09-14T04:37:36.653Z,61.30
2017-09-14T04:40:05.696Z,61.10
2017-09-14T04:42:33.994Z,61.00
2017-09-14T04:45:03.257Z,60.70
2017-09-14T04:47:32.263Z,60.50
2017-09-14T04:50:00.897Z,60.60
2017-09-14T04:52:30.060Z,60.60
2017-09-14T04:54:59.151Z,61.00
2017-09-14T04:57:27.759Z,61.30
2017-09-14T04:59:56.039Z,62.00
2017-09-14T05:02:24.411Z,61.10
2017-09-14T05:04:53.033Z,61.60
2017-09-14T05:07:21.260Z,60.50
2017-09-14T05:09:49.526Z,60.60
2017-09-14T05:12:17.843Z,61.00
2017-09-14T05:14:47.873Z,61.60
2017-09-14T05:17:17.804Z,61.30
2017-09-14T05:19:46.069Z,62.00
2017-09-14T05:22:14.303Z,61.60
2017-09-14T05:24:43.626Z,61.70
2017-09-14T05:27:11.898Z,61.50
2017-09-14T05:29:40.171Z,61.80
2017-09-14T05:32:08.442Z,61.60
2017-09-14T05:34:36.763Z,61.60
2017-09-14T05:37:05.928Z,61.90
2017-09-14T05:39:34.188Z,61.80
2017-09-14T05:42:02.440Z,61.70
2017-09-14T05:44:30.714Z,61.30
2017-09-14T05:46:58.973Z,61.60
2017-09-14T05:49:28.077Z,61.80
2017-09-14T05:51:57.097Z,62.10
2017-09-14T05:54:25.368Z,61.90
2017-09-14T05:56:53.734Z,62.20
2017-09-14T05:59:21.985Z,62.00
2017-09-14T06:01:51.033Z,62.00
2017-09-14T06:04:20.326Z,62.20
2017-09-14T06:06:49.399Z,62.20
2017-09-14T06:09:17.740Z,62.40
2017-09-14T06:11:53.934Z,62.60
2017-09-14T06:14:22.191Z,62.20
2017-09-14T06:16:53.552Z,62.50
2017-09-14T06:19:21.794Z,62.40
2017-09-14T06:21:50.052Z,62.50
2017-09-14T06:24:18.365Z,62.00
2017-09-14T06:26:46.603Z,61.90
2017-09-14T06:29:14.873Z,62.50
2017-09-14T06:31:43.179Z,62.20
2017-09-14T06:34:11.417Z,61.80
2017-09-14T06:36:39.671Z,62.10
2017-09-14T06:39:08.019Z,62.00
2017-09-14T06:41:37.067Z,61.70
2017-09-14T06:44:05.368Z,61.80
2017-09-14T06:46:33.635Z,62.10
2017-09-14T06:49:01.877Z,61.70
2017-09-14T06:51:30.903Z,62.10
2017-09-14T06:53:59.166Z,62.00
2017-09-14T06:56:28.415Z,62.40
2017-09-14T06:58:57.694Z,62.40
2017-09-14T07:01:25.921Z,62.50
2017-09-14T07:03:54.218Z,62.30
2017-09-14T07:06:22.504Z,62.20
2017-09-14T07:08:50.800Z,62.40
2017-09-14T07:11:19.113Z,62.20
2017-09-14T07:13:48.195Z,63.10
2017-09-14T07:16:18.005Z,62.40
2017-09-14T07:18:46.544Z,62.20
2017-09-14T07:21:15.031Z,62.00
2017-09-14T07:23:43.368Z,61.80
2017-09-14T07:26:11.638Z,61.60
2017-09-14T07:28:39.864Z,60.80
2017-09-14T07:31:08.903Z,60.90
2017-09-14T07:33:37.184Z,60.90
2017-09-14T07:36:05.432Z,60.80
2017-09-14T07:38:34.084Z,61.20
2017-09-14T07:41:05.166Z,61.10
2017-09-14T07:43:33.419Z,60.90
2017-09-14T07:46:01.675Z,61.80
2017-09-14T07:48:31.595Z,61.00
2017-09-14T07:50:59.873Z,60.80
2017-09-14T07:53:28.908Z,60.10
2017-09-14T07:55:57.243Z,60.20
2017-09-14T07:58:26.417Z,59.90
2017-09-14T08:00:54.746Z,59.70
2017-09-14T08:03:23.730Z,60.30
2017-09-14T08:05:52.041Z,60.00
2017-09-14T08:08:20.303Z,60.10
2017-09-14T08:10:48.601Z,59.90
2017-09-14T08:13:16.852Z,59.70
2017-09-14T08:15:45.133Z,60.00
2017-09-14T08:18:13.896Z,59.80
2017-09-14T08:20:42.922Z,59.70
2017-09-14T08:23:11.991Z,59.90
2017-09-14T08:25:40.551Z,59.90
2017-09-14T08:28:09.561Z,60.10
2017-09-14T08:30:38.797Z,59.90
2017-09-14T08:33:07.908Z,60.10
2017-09-14T08:35:36.227Z,60.60
2017-09-14T08:38:04.488Z,60.50
2017-09-14T08:40:33.529Z,60.80
2017-09-14T08:43:01.815Z,60.80
2017-09-14T08:45:30.071Z,60.80
2017-09-14T08:47:59.175Z,60.50
2017-09-14T08:50:28.282Z,60.70
2017-09-14T08:52:57.444Z,60.60
2017-09-14T08:55:26.544Z,60.90
2017-09-14T08:57:54.800Z,61.00
2017-09-14T09:00:23.864Z,60.00
2017-09-14T09:02:52.172Z,60.00
2017-09-14T09:05:21.182Z,59.60
2017-09-14T09:07:49.586Z,59.60
2017-09-14T09:10:17.893Z,59.10
2017-09-14T09:12:47.008Z,59.20
2017-09-14T09:15:15.296Z,59.10
2017-09-14T09:17:44.296Z,58.60
2017-09-14T09:20:13.319Z,58.40
2017-09-14T09:22:41.781Z,58.30
2017-09-14T09:25:12.050Z,58.50
2017-09-14T09:27:40.316Z,58.70
2017-09-14T09:30:08.579Z,59.40
2017-09-14T09:32:36.857Z,59.60
2017-09-14T09:35:05.194Z,59.60
2017-09-14T09:37:34.985Z,60.30
2017-09-14T09:40:03.217Z,60.20
2017-09-14T09:42:31.812Z,59.70
2017-09-14T09:45:01.276Z,60.50
2017-09-14T09:47:30.320Z,57.30
2017-09-14T09:49:58.614Z,57.30
2017-09-14T09:52:27.922Z,58.30
2017-09-14T09:54:56.322Z,59.20
2017-09-14T09:57:25.871Z,60.30
2017-09-14T09:59:54.491Z,60.10
2017-09-14T10:02:23.608Z,60.00
2017-09-14T10:04:53.077Z,59.70
2017-09-14T10:07:23.270Z,59.50
2017-09-14T10:09:53.449Z,60.10
2017-09-14T10:12:23.441Z,59.10
2017-09-14T10:14:52.987Z,59.10
2017-09-14T10:17:23.077Z,58.80
2017-09-14T10:19:53.960Z,58.80
2017-09-14T10:22:23.703Z,59.20
2017-09-14T10:24:54.555Z,59.40
2017-09-14T10:27:27.443Z,59.40
2017-09-14T10:30:02.065Z,59.70
2017-09-14T10:32:32.304Z,60.20
2017-09-14T10:35:01.815Z,60.10
2017-09-14T10:37:30.358Z,60.00
2017-09-14T10:40:04.639Z,61.10
2017-09-14T10:42:34.056Z,60.00
2017-09-14T10:45:02.913Z,60.30
2017-09-14T10:47:33.169Z,60.30
2017-09-14T10:50:01.720Z,60.30
2017-09-14T10:52:31.250Z,61.50
2017-09-14T10:55:01.076Z,62.20
2017-09-14T10:57:30.524Z,62.10
2017-09-14T11:00:00.042Z,61.90
2017-09-14T11:02:29.613Z,62.00
2017-09-14T11:04:58.310Z,62.00
2017-09-14T11:07:30.814Z,62.60
2017-09-14T11:10:00.246Z,62.20
2017-09-14T11:12:29.614Z,61.40
2017-09-14T11:14:59.042Z,61.30
2017-09-14T11:17:27.691Z,61.30
2017-09-14T11:19:56.210Z,61.30
2017-09-14T11:22:26.473Z,61.40
2017-09-14T11:24:54.728Z,61.20
2017-09-14T11:27:22.987Z,61.30
2017-09-14T11:29:52.093Z,61.50
2017-09-14T11:32:21.130Z,61.20
2017-09-14T11:34:49.435Z,61.00
2017-09-14T11:37:17.727Z,59.90
2017-09-14T11:39:46.101Z,59.30
2017-09-14T11:42:14.407Z,59.30
2017-09-14T11:44:43.470Z,58.90
2017-09-14T11:47:11.756Z,58.90
2017-09-14T11:49:41.023Z,58.30
2017-09-14T11:52:10.124Z,57.80
2017-09-14T11:54:38.412Z,57.80
2017-09-14T11:57:06.706Z,57.50
2017-09-14T11:59:35.108Z,57.90
2017-09-14T12:02:04.122Z,58.60
2017-09-14T12:04:32.384Z,58.40
2017-09-14T12:07:00.733Z,58.20
2017-09-14T12:09:29.875Z,58.80
2017-09-14T12:11:59.587Z,58.70
2017-09-14T12:14:27.842Z,58.30
2017-09-14T12:16:56.943Z,58.30
2017-09-14T12:19:25.241Z,58.60
2017-09-14T12:21:53.563Z,58.20
2017-09-14T12:24:21.812Z,57.50
2017-09-14T12:26:50.137Z,57.90
2017-09-14T12:29:18.466Z,57.80
2017-09-14T12:31:46.760Z,58.10
2017-09-14T12:34:15.026Z,58.10
2017-09-14T12:36:43.591Z,57.40
2017-09-14T12:39:11.861Z,57.00
2017-09-14T12:41:40.235Z,57.20
2017-09-14T12:44:08.829Z,56.50
2017-09-14T12:46:37.085Z,56.70
2017-09-14T12:49:06.304Z,57.00
2017-09-14T12:51:38.713Z,57.80
2017-09-14T12:54:07.021Z,57.70
2017-09-14T12:56:36.047Z,57.80
2017-09-14T12:59:04.324Z,57.80
2017-09-14T13:01:32.592Z,57.80
2017-09-14T13:04:00.888Z,57.10
2017-09-14T13:06:29.305Z,57.40
2017-09-14T13:08:58.342Z,56.80
2017-09-14T13:11:26.632Z,56.60
2017-09-14T13:13:54.915Z,56.30
2017-09-14T13:16:23.201Z,56.20
2017-09-14T13:18:52.461Z,55.70
2017-09-14T13:21:21.306Z,55.50
2017-09-14T13:23:49.681Z,55.70
2017-09-14T13:26:17.953Z,55.60
2017-09-14T13:28:47.249Z,55.60
2017-09-14T13:33:51.042Z,54.90
2017-09-14T13:36:19.318Z,55.80
2017-09-14T13:38:47.641Z,54.90
2017-09-14T13:41:17.545Z,55.00
2017-09-14T13:43:46.754Z,55.10
2017-09-14T13:46:15.804Z,55.10
2017-09-14T13:48:44.950Z,54.90
2017-09-14T13:51:14.046Z,54.90
2017-09-14T13:53:42.308Z,54.80
2017-09-14T13:56:10.552Z,54.70
2017-09-14T13:58:38.868Z,55.30
2017-09-14T14:01:07.935Z,55.10
2017-09-14T14:03:50.769Z,55.00
2017-09-14T14:06:19.036Z,54.70
2017-09-14T14:08:48.351Z,54.60
2017-09-14T14:11:16.630Z,54.50
2017-09-14T14:13:45.736Z,54.10
2017-09-14T14:16:14.929Z,53.80
2017-09-14T14:18:44.936Z,53.50
2017-09-14T14:21:13.218Z,53.70
2017-09-14T14:23:42.271Z,53.20
2017-09-14T14:26:11.573Z,53.20
2017-09-14T14:28:39.867Z,53.30
2017-09-14T14:31:08.148Z,54.10
2017-09-14T14:33:36.439Z,54.00
2017-09-14T14:36:05.731Z,54.40
2017-09-14T14:38:34.041Z,54.70
2017-09-14T14:41:04.104Z,55.60
2017-09-14T14:43:32.377Z,55.30
2017-09-14T14:46:00.789Z,56.40
2017-09-14T14:48:29.089Z,55.80
2017-09-14T14:50:58.116Z,56.10
2017-09-14T14:53:27.365Z,56.00
2017-09-14T14:55:57.374Z,56.60
2017-09-14T14:58:25.687Z,56.50
2017-09-14T15:00:54.745Z,57.20
2017-09-14T15:03:23.034Z,57.30
2017-09-14T15:05:51.316Z,57.60
2017-09-14T15:08:19.597Z,58.40
2017-09-14T15:10:48.068Z,58.40
2017-09-14T15:13:16.384Z,58.60
2017-09-14T15:15:44.656Z,58.90
2017-09-14T15:18:12.949Z,59.20
2017-09-14T15:20:42.199Z,59.40
2017-09-14T15:23:11.262Z,59.50
2017-09-14T15:25:39.558Z,59.40
2017-09-14T15:28:17.397Z,59.90
2017-09-14T15:30:46.654Z,60.00
2017-09-14T15:33:15.736Z,60.20
2017-09-14T15:35:44.136Z,60.30
2017-09-14T15:38:15.302Z,59.70
2017-09-14T15:41:04.411Z,60.60
2017-09-14T15:43:47.586Z,60.20
2017-09-14T15:46:16.970Z,60.20
2017-09-14T15:48:50.826Z,60.60
2017-09-14T15:51:24.788Z,60.70
2017-09-14T15:53:53.079Z,61.30
2017-09-14T15:56:22.164Z,61.10
2017-09-14T15:58:52.324Z,61.70
2017-09-14T16:01:21.400Z,62.00
2017-09-14T16:03:49.688Z,61.80
2017-09-14T16:06:19.360Z,62.50
2017-09-14T16:08:49.004Z,62.60
2017-09-14T16:11:18.076Z,62.70
2017-09-14T16:13:47.128Z,62.70
2017-09-14T16:16:15.873Z,62.80
2017-09-14T16:18:44.252Z,62.60
2017-09-14T16:21:12.679Z,62.60
2017-09-14T16:23:41.055Z,62.50
2017-09-14T16:26:10.186Z,62.80
2017-09-14T16:28:39.349Z,62.80
2017-09-14T16:31:07.639Z,62.80
2017-09-14T16:33:36.004Z,62.60
2017-09-14T16:36:04.491Z,62.70
2017-09-14T16:38:34.078Z,62.70
2017-09-14T16:41:02.499Z,63.10
2017-09-14T16:43:31.590Z,63.20
2017-09-14T16:46:01.698Z,63.50
2017-09-14T16:48:29.976Z,63.40
2017-09-14T16:50:58.416Z,63.30
2017-09-14T16:53:26.695Z,63.50
2017-09-14T16:55:55.079Z,63.60
2017-09-14T16:58:24.134Z,63.10
2017-09-14T17:00:54.162Z,63.30
2017-09-14T17:03:22.721Z,63.20
2017-09-14T17:05:51.786Z,64.00
2017-09-14T17:08:22.592Z,64.30
2017-09-14T17:10:52.030Z,64.30
2017-09-14T17:13:21.169Z,64.00
2017-09-14T17:15:49.525Z,64.00
2017-09-14T17:18:18.945Z,64.10
2017-09-14T17:20:47.439Z,64.40
2017-09-14T17:23:16.754Z,65.10
2017-09-14T17:25:46.229Z,65.10
2017-09-14T17:28:15.566Z,64.80
2017-09-14T17:30:44.642Z,64.80
2017-09-14T17:33:12.945Z,65.00
2017-09-14T17:35:41.255Z,65.20
2017-09-14T17:38:10.511Z,65.20
2017-09-14T17:40:40.380Z,65.50
2017-09-14T17:43:08.671Z,65.20
2017-09-14T17:45:37.792Z,65.60
2017-09-14T17:48:07.716Z,65.40
2017-09-14T17:50:36.957Z,64.90
2017-09-14T17:53:05.337Z,65.20
2017-09-14T17:55:39.839Z,65.40
2017-09-14T17:58:12.526Z,65.60
2017-09-14T18:00:41.080Z,65.90
2017-09-14T18:03:10.323Z,65.90
2017-09-14T18:05:46.426Z,66.00
2017-09-14T18:08:14.854Z,65.80
2017-09-14T18:10:43.910Z,65.80
2017-09-14T18:13:12.187Z,65.70
2017-09-14T18:15:41.350Z,66.30
2017-09-14T18:18:10.463Z,65.80
2017-09-14T18:20:39.597Z,66.00
2017-09-14T18:23:08.669Z,65.80
2017-09-14T18:25:37.819Z,66.80
2017-09-14T18:28:06.178Z,66.10
2017-09-14T18:30:34.450Z,66.00
2017-09-14T18:33:02.736Z,66.20
2017-09-14T18:35:31.381Z,66.30
2017-09-14T18:37:59.732Z,66.60
2017-09-14T18:40:28.209Z,66.70
2017-09-14T18:42:57.364Z,67.40
2017-09-14T18:45:26.851Z,67.20
2017-09-14T18:47:55.388Z,67.30
2017-09-14T18:50:23.816Z,67.80
2017-09-14T18:52:52.297Z,67.90
2017-09-14T18:55:20.869Z,68.10
2017-09-14T18:57:51.405Z,67.60
2017-09-14T19:00:20.264Z,67.60
2017-09-14T19:02:49.443Z,67.40
2017-09-14T19:05:18.869Z,67.40
2017-09-14T19:07:48.370Z,67.50
2017-09-14T19:10:16.779Z,67.50
2017-09-14T19:12:46.207Z,67.70
2017-09-14T19:15:15.480Z,67.90
2017-09-14T19:17:46.313Z,68.00
2017-09-14T19:20:15.941Z,67.80
2017-09-14T19:22:44.981Z,67.90
2017-09-14T19:25:15.100Z,67.70
2017-09-14T19:27:44.471Z,67.50
2017-09-14T19:30:14.288Z,68.00
2017-09-14T19:32:43.894Z,67.90
2017-09-14T19:35:12.605Z,67.80
2017-09-14T19:37:41.221Z,68.50
2017-09-14T19:40:10.900Z,68.10
2017-09-14T19:42:39.599Z,68.10
2017-09-14T19:45:09.616Z,68.10
2017-09-14T19:47:38.867Z,67.90
2017-09-14T19:50:07.472Z,68.00
2017-09-14T19:52:38.100Z,67.90
2017-09-14T19:55:06.740Z,67.60
2017-09-14T19:57:37.015Z,68.10
2017-09-14T20:00:08.535Z,68.10
2017-09-14T20:02:39.176Z,68.00
2017-09-14T20:05:09.417Z,68.10
2017-09-14T20:07:40.254Z,68.20
2017-09-14T20:10:12.242Z,68.60
2017-09-14T20:12:41.776Z,68.00
2017-09-14T20:15:11.037Z,68.60
2017-09-14T20:17:43.005Z,67.80
2017-09-14T20:20:18.628Z,67.60
2017-09-14T20:22:47.831Z,67.70
2017-09-14T20:25:19.458Z,67.40
2017-09-14T20:27:49.896Z,67.30
2017-09-14T20:30:18.252Z,67.70
2017-09-14T20:32:46.723Z,67.40
2017-09-14T20:35:15.029Z,68.20
2017-09-14T20:37:43.386Z,67.60
2017-09-14T20:40:12.627Z,67.40
2017-09-14T20:42:41.977Z,67.70
2017-09-14T20:45:11.589Z,67.40
2017-09-14T20:47:40.728Z,67.60
2017-09-14T20:50:09.144Z,67.30
2017-09-14T20:52:38.294Z,67.20
2017-09-14T20:55:07.423Z,67.60
2017-09-14T20:57:35.762Z,67.70
2017-09-14T21:00:04.394Z,68.50
2017-09-14T21:02:33.005Z,68.00
2017-09-14T21:05:02.231Z,67.70
2017-09-14T21:07:31.362Z,68.10
2017-09-14T21:09:59.689Z,67.90
2017-09-14T21:12:29.675Z,67.60
2017-09-14T21:15:01.719Z,67.60
2017-09-14T21:17:31.034Z,67.50
2017-09-14T21:20:01.006Z,67.80
2017-09-14T21:22:29.324Z,67.90
2017-09-14T21:24:59.676Z,67.90
2017-09-14T21:27:28.786Z,67.80
2017-09-14T21:29:57.823Z,68.00
2017-09-14T21:32:26.950Z,68.00
2017-09-14T21:34:55.536Z,67.70
2017-09-14T21:37:25.308Z,68.00
2017-09-14T21:39:53.578Z,68.10
2017-09-14T21:42:21.866Z,68.00
2017-09-14T21:44:50.133Z,68.20
2017-09-14T21:47:18.462Z,68.30
2017-09-14T21:49:46.784Z,67.90
2017-09-14T21:52:16.356Z,68.20
2017-09-14T21:54:44.734Z,68.50
2017-09-14T21:57:13.068Z,68.80
2017-09-14T21:59:41.380Z,68.90
2017-09-14T22:02:15.807Z,68.60
2017-09-14T22:04:44.104Z,68.20
2017-09-14T22:07:13.251Z,68.00
2017-09-14T22:09:41.555Z,67.80
2017-09-14T22:12:09.799Z,67.80
2017-09-14T22:14:38.064Z,67.50
2017-09-14T22:17:07.318Z,67.30
2017-09-14T22:19:35.652Z,67.80
2017-09-14T22:22:03.922Z,67.80
2017-09-14T22:24:32.212Z,67.70
2017-09-14T22:27:01.304Z,68.00
2017-09-14T22:29:29.568Z,67.90
2017-09-14T22:31:57.878Z,67.80
2017-09-14T22:34:27.004Z,67.70
2017-09-14T22:36:55.292Z,68.00
2017-09-14T22:39:23.558Z,67.80
2017-09-14T22:41:53.481Z,67.90
2017-09-14T22:44:22.521Z,68.10
2017-09-14T22:46:51.636Z,68.00
2017-09-14T22:49:19.917Z,67.60
2017-09-14T22:51:49.005Z,67.30
2017-09-14T22:54:18.808Z,67.20
2017-09-14T22:56:47.145Z,67.50
2017-09-14T22:59:15.628Z,67.40
2017-09-14T23:01:45.295Z,67.80
2017-09-14T23:04:14.320Z,68.20
2017-09-14T23:06:42.597Z,67.70
2017-09-14T23:09:11.575Z,67.50
2017-09-14T23:11:39.865Z,66.90
2017-09-14T23:14:08.144Z,67.20
2017-09-14T23:16:36.486Z,66.80
2017-09-14T23:19:05.558Z,67.20
2017-09-14T23:21:33.808Z,66.90
2017-09-14T23:24:02.904Z,66.90
2017-09-14T23:26:31.246Z,67.00
2017-09-14T23:29:00.283Z,67.10
2017-09-14T23:31:28.762Z,67.10
2017-09-14T23:33:57.148Z,68.00
2017-09-14T23:36:25.481Z,67.10
2017-09-14T23:38:53.784Z,67.20
2017-09-14T23:41:23.061Z,66.90
2017-09-14T23:43:51.390Z,67.00
2017-09-14T23:46:19.688Z,67.00
2017-09-14T23:48:48.932Z,66.60
2017-09-14T23:51:17.220Z,66.70
2017-09-14T23:53:45.492Z,66.30
2017-09-14T23:56:13.777Z,66.30
2017-09-14T23:58:42.064Z,66.40
